sensor_id;sensor_type;location;lat;lon;timestamp;P1;durP1;ratioP1;P2;durP2;ratioP2
43606;SDS011;29197;44.788;10.366;2022-11-20T00:00:44;51.78;;;24.65;;
43606;SDS011;29197;44.788;10.366;2022-11-20T00:03:33;49.67;;;24.50;;
43606;SDS011;29197;44.788;10.366;2022-11-20T00:06:22;58.07;;;26.23;;
43606;SDS011;29197;44.788;10.366;2022-11-20T00:09:12;53.13;;;25.20;;
43606;SDS011;29197;44.788;10.366;2022-11-20T00:12:02;56.87;;;24.73;;
43606;SDS011;29197;44.788;10.366;2022-11-20T00:14:54;51.40;;;25.23;;
43606;SDS011;29197;44.788;10.366;2022-11-20T00:17:43;48.80;;;23.13;;
43606;SDS011;29197;44.788;10.366;2022-11-20T00:20:33;48.17;;;23.50;;
43606;SDS011;29197;44.788;10.366;2022-11-20T00:23:22;53.10;;;23.80;;
43606;SDS011;29197;44.788;10.366;2022-11-20T00:26:12;45.60;;;23.93;;
43606;SDS011;29197;44.788;10.366;2022-11-20T00:29:03;51.50;;;23.27;;
43606;SDS011;29197;44.788;10.366;2022-11-20T00:31:54;53.63;;;23.83;;
43606;SDS011;29197;44.788;10.366;2022-11-20T00:34:43;49.30;;;24.08;;
43606;SDS011;29197;44.788;10.366;2022-11-20T00:37:33;45.87;;;22.80;;
43606;SDS011;29197;44.788;10.366;2022-11-20T00:40:22;46.63;;;22.23;;
43606;SDS011;29197;44.788;10.366;2022-11-20T00:43:11;46.37;;;22.67;;
43606;SDS011;29197;44.788;10.366;2022-11-20T00:46:02;48.80;;;23.03;;
43606;SDS011;29197;44.788;10.366;2022-11-20T00:48:55;45.27;;;22.40;;
43606;SDS011;29197;44.788;10.366;2022-11-20T00:51:43;43.33;;;22.05;;
43606;SDS011;29197;44.788;10.366;2022-11-20T00:54:32;44.00;;;22.63;;
43606;SDS011;29197;44.788;10.366;2022-11-20T00:57:22;41.37;;;20.80;;
43606;SDS011;29197;44.788;10.366;2022-11-20T01:00:11;40.67;;;20.93;;
43606;SDS011;29197;44.788;10.366;2022-11-20T01:03:01;43.30;;;20.87;;
43606;SDS011;29197;44.788;10.366;2022-11-20T01:05:51;43.20;;;21.83;;
43606;SDS011;29197;44.788;10.366;2022-11-20T01:08:40;45.87;;;20.97;;
43606;SDS011;29197;44.788;10.366;2022-11-20T01:11:31;44.47;;;21.43;;
43606;SDS011;29197;44.788;10.366;2022-11-20T01:14:21;43.77;;;21.27;;
43606;SDS011;29197;44.788;10.366;2022-11-20T01:17:10;40.20;;;20.77;;
43606;SDS011;29197;44.788;10.366;2022-11-20T01:20:00;43.03;;;20.10;;
43606;SDS011;29197;44.788;10.366;2022-11-20T01:22:51;41.10;;;20.50;;
43606;SDS011;29197;44.788;10.366;2022-11-20T01:25:40;41.53;;;19.43;;
43606;SDS011;29197;44.788;10.366;2022-11-20T01:28:30;43.40;;;20.87;;
43606;SDS011;29197;44.788;10.366;2022-11-20T01:31:19;43.33;;;20.73;;
43606;SDS011;29197;44.788;10.366;2022-11-20T01:34:11;39.07;;;19.07;;
43606;SDS011;29197;44.788;10.366;2022-11-20T01:37:01;41.00;;;19.90;;
43606;SDS011;29197;44.788;10.366;2022-11-20T01:39:51;39.97;;;19.00;;
43606;SDS011;29197;44.788;10.366;2022-11-20T01:42:44;39.87;;;20.33;;
43606;SDS011;29197;44.788;10.366;2022-11-20T01:45:56;39.97;;;19.80;;
43606;SDS011;29197;44.788;10.366;2022-11-20T01:49:08;37.17;;;20.43;;
43606;SDS011;29197;44.788;10.366;2022-11-20T01:52:04;45.70;;;20.53;;
43606;SDS011;29197;44.788;10.366;2022-11-20T01:54:58;35.13;;;17.73;;
43606;SDS011;29197;44.788;10.366;2022-11-20T01:57:51;38.23;;;19.07;;
43606;SDS011;29197;44.788;10.366;2022-11-20T02:00:41;44.27;;;21.57;;
43606;SDS011;29197;44.788;10.366;2022-11-20T02:03:31;38.13;;;19.27;;
43606;SDS011;29197;44.788;10.366;2022-11-20T02:06:22;41.20;;;19.60;;
43606;SDS011;29197;44.788;10.366;2022-11-20T02:09:13;40.80;;;19.47;;
43606;SDS011;29197;44.788;10.366;2022-11-20T02:12:04;39.83;;;18.63;;
43606;SDS011;29197;44.788;10.366;2022-11-20T02:15:14;37.27;;;18.33;;
43606;SDS011;29197;44.788;10.366;2022-11-20T02:18:03;35.03;;;17.57;;
43606;SDS011;29197;44.788;10.366;2022-11-20T02:20:54;34.23;;;18.87;;
43606;SDS011;29197;44.788;10.366;2022-11-20T02:23:57;32.07;;;16.57;;
43606;SDS011;29197;44.788;10.366;2022-11-20T02:26:51;33.10;;;17.53;;
43606;SDS011;29197;44.788;10.366;2022-11-20T02:29:44;31.80;;;17.40;;
43606;SDS011;29197;44.788;10.366;2022-11-20T02:32:37;32.73;;;15.67;;
43606;SDS011;29197;44.788;10.366;2022-11-20T02:35:41;31.83;;;16.70;;
43606;SDS011;29197;44.788;10.366;2022-11-20T02:38:32;31.20;;;17.17;;
43606;SDS011;29197;44.788;10.366;2022-11-20T02:41:22;32.87;;;17.30;;
43606;SDS011;29197;44.788;10.366;2022-11-20T02:44:19;30.40;;;15.53;;
43606;SDS011;29197;44.788;10.366;2022-11-20T02:47:08;31.27;;;17.27;;
43606;SDS011;29197;44.788;10.366;2022-11-20T02:49:57;34.20;;;17.13;;
43606;SDS011;29197;44.788;10.366;2022-11-20T02:52:46;29.13;;;16.33;;
43606;SDS011;29197;44.788;10.366;2022-11-20T02:55:36;31.63;;;16.90;;
43606;SDS011;29197;44.788;10.366;2022-11-20T02:58:26;27.80;;;15.20;;
43606;SDS011;29197;44.788;10.366;2022-11-20T03:01:16;30.53;;;15.57;;
43606;SDS011;29197;44.788;10.366;2022-11-20T03:04:05;29.10;;;16.27;;
43606;SDS011;29197;44.788;10.366;2022-11-20T03:06:54;27.00;;;14.97;;
43606;SDS011;29197;44.788;10.366;2022-11-20T03:09:44;29.67;;;15.27;;
43606;SDS011;29197;44.788;10.366;2022-11-20T03:12:33;26.47;;;14.77;;
43606;SDS011;29197;44.788;10.366;2022-11-20T03:15:23;32.77;;;15.93;;
43606;SDS011;29197;44.788;10.366;2022-11-20T03:18:12;27.10;;;15.10;;
43606;SDS011;29197;44.788;10.366;2022-11-20T03:21:01;31.67;;;15.30;;
43606;SDS011;29197;44.788;10.366;2022-11-20T03:23:50;28.77;;;15.30;;
43606;SDS011;29197;44.788;10.366;2022-11-20T03:26:41;26.33;;;13.57;;
43606;SDS011;29197;44.788;10.366;2022-11-20T03:29:30;29.57;;;15.00;;
43606;SDS011;29197;44.788;10.366;2022-11-20T03:32:20;29.90;;;14.93;;
43606;SDS011;29197;44.788;10.366;2022-11-20T03:35:09;25.20;;;13.70;;
43606;SDS011;29197;44.788;10.366;2022-11-20T03:37:58;28.50;;;14.53;;
43606;SDS011;29197;44.788;10.366;2022-11-20T03:40:47;25.37;;;14.23;;
43606;SDS011;29197;44.788;10.366;2022-11-20T03:43:36;28.70;;;14.00;;
43606;SDS011;29197;44.788;10.366;2022-11-20T03:46:28;24.63;;;14.17;;
43606;SDS011;29197;44.788;10.366;2022-11-20T03:49:18;27.20;;;14.13;;
43606;SDS011;29197;44.788;10.366;2022-11-20T03:52:09;23.33;;;12.70;;
43606;SDS011;29197;44.788;10.366;2022-11-20T03:54:58;25.97;;;13.57;;
43606;SDS011;29197;44.788;10.366;2022-11-20T03:57:47;28.17;;;14.17;;
43606;SDS011;29197;44.788;10.366;2022-11-20T04:00:36;28.07;;;14.00;;
43606;SDS011;29197;44.788;10.366;2022-11-20T04:03:25;24.43;;;13.00;;
43606;SDS011;29197;44.788;10.366;2022-11-20T04:06:16;27.67;;;14.07;;
43606;SDS011;29197;44.788;10.366;2022-11-20T04:09:08;24.10;;;13.43;;
43606;SDS011;29197;44.788;10.366;2022-11-20T04:11:57;22.30;;;12.77;;
43606;SDS011;29197;44.788;10.366;2022-11-20T04:14:46;25.63;;;14.20;;
43606;SDS011;29197;44.788;10.366;2022-11-20T04:17:35;26.77;;;14.10;;
43606;SDS011;29197;44.788;10.366;2022-11-20T04:20:25;31.73;;;14.17;;
43606;SDS011;29197;44.788;10.366;2022-11-20T04:23:16;26.00;;;14.13;;
43606;SDS011;29197;44.788;10.366;2022-11-20T04:26:10;25.70;;;13.60;;
43606;SDS011;29197;44.788;10.366;2022-11-20T04:29:00;29.47;;;14.37;;
43606;SDS011;29197;44.788;10.366;2022-11-20T04:31:50;27.33;;;14.63;;
43606;SDS011;29197;44.788;10.366;2022-11-20T04:34:39;27.17;;;13.20;;
43606;SDS011;29197;44.788;10.366;2022-11-20T04:37:29;25.63;;;13.97;;
43606;SDS011;29197;44.788;10.366;2022-11-20T06:55:46;21.83;;;11.60;;
43606;SDS011;29197;44.788;10.366;2022-11-20T06:58:35;19.90;;;11.73;;
43606;SDS011;29197;44.788;10.366;2022-11-20T07:01:24;22.27;;;11.37;;
43606;SDS011;29197;44.788;10.366;2022-11-20T07:04:14;23.00;;;11.03;;
43606;SDS011;29197;44.788;10.366;2022-11-20T07:07:04;21.63;;;11.53;;
43606;SDS011;29197;44.788;10.366;2022-11-20T07:09:53;18.40;;;10.90;;
43606;SDS011;29197;44.788;10.366;2022-11-20T07:12:48;20.60;;;11.13;;
43606;SDS011;29197;44.788;10.366;2022-11-20T07:15:37;21.00;;;11.80;;
43606;SDS011;29197;44.788;10.366;2022-11-20T07:18:26;23.27;;;12.00;;
43606;SDS011;29197;44.788;10.366;2022-11-20T07:21:15;23.43;;;12.30;;
43606;SDS011;29197;44.788;10.366;2022-11-20T07:24:04;21.13;;;11.57;;
43606;SDS011;29197;44.788;10.366;2022-11-20T07:26:54;24.37;;;11.83;;
43606;SDS011;29197;44.788;10.366;2022-11-20T07:29:44;22.37;;;11.37;;
43606;SDS011;29197;44.788;10.366;2022-11-20T07:32:32;18.77;;;11.43;;
43606;SDS011;29197;44.788;10.366;2022-11-20T07:35:21;20.27;;;11.50;;
43606;SDS011;29197;44.788;10.366;2022-11-20T07:38:11;24.23;;;11.97;;
43606;SDS011;29197;44.788;10.366;2022-11-20T07:41:01;21.70;;;11.97;;
43606;SDS011;29197;44.788;10.366;2022-11-20T07:43:50;23.63;;;12.77;;
43606;SDS011;29197;44.788;10.366;2022-11-20T07:46:41;23.37;;;12.53;;
43606;SDS011;29197;44.788;10.366;2022-11-20T07:49:31;17.80;;;10.80;;
43606;SDS011;29197;44.788;10.366;2022-11-20T07:52:20;21.37;;;11.97;;
43606;SDS011;29197;44.788;10.366;2022-11-20T07:55:10;20.90;;;12.53;;
43606;SDS011;29197;44.788;10.366;2022-11-20T07:58:00;30.30;;;15.20;;
43606;SDS011;29197;44.788;10.366;2022-11-20T08:00:48;31.30;;;14.83;;
43606;SDS011;29197;44.788;10.366;2022-11-20T08:03:40;29.37;;;13.43;;
43606;SDS011;29197;44.788;10.366;2022-11-20T08:06:29;27.43;;;13.23;;
43606;SDS011;29197;44.788;10.366;2022-11-20T08:09:18;28.30;;;14.80;;
43606;SDS011;29197;44.788;10.366;2022-11-20T08:12:08;32.67;;;16.75;;
43606;SDS011;29197;44.788;10.366;2022-11-20T08:15:22;44.37;;;21.27;;
43606;SDS011;29197;44.788;10.366;2022-11-20T08:18:11;51.93;;;24.40;;
43606;SDS011;29197;44.788;10.366;2022-11-20T08:21:19;50.97;;;22.63;;
43606;SDS011;29197;44.788;10.366;2022-11-20T08:24:08;54.67;;;24.37;;
43606;SDS011;29197;44.788;10.366;2022-11-20T08:26:57;53.07;;;23.83;;
43606;SDS011;29197;44.788;10.366;2022-11-20T08:29:47;55.30;;;24.63;;
43606;SDS011;29197;44.788;10.366;2022-11-20T08:32:36;55.07;;;25.63;;
43606;SDS011;29197;44.788;10.366;2022-11-20T08:35:26;69.00;;;29.43;;
43606;SDS011;29197;44.788;10.366;2022-11-20T08:38:16;67.63;;;29.07;;
43606;SDS011;29197;44.788;10.366;2022-11-20T08:41:05;64.10;;;26.00;;
43606;SDS011;29197;44.788;10.366;2022-11-20T08:44:08;57.27;;;24.10;;
43606;SDS011;29197;44.788;10.366;2022-11-20T08:46:57;55.47;;;24.77;;
43606;SDS011;29197;44.788;10.366;2022-11-20T08:49:46;56.33;;;24.60;;
43606;SDS011;29197;44.788;10.366;2022-11-20T08:52:35;50.40;;;24.10;;
43606;SDS011;29197;44.788;10.366;2022-11-20T08:55:27;49.47;;;23.47;;
43606;SDS011;29197;44.788;10.366;2022-11-20T08:58:15;49.33;;;24.87;;
43606;SDS011;29197;44.788;10.366;2022-11-20T09:01:04;54.57;;;24.10;;
43606;SDS011;29197;44.788;10.366;2022-11-20T09:03:54;52.57;;;24.20;;
43606;SDS011;29197;44.788;10.366;2022-11-20T09:06:43;55.23;;;23.23;;
43606;SDS011;29197;44.788;10.366;2022-11-20T09:09:32;48.73;;;22.30;;
43606;SDS011;29197;44.788;10.366;2022-11-20T09:12:23;43.83;;;21.20;;
43606;SDS011;29197;44.788;10.366;2022-11-20T09:15:12;47.77;;;21.63;;
43606;SDS011;29197;44.788;10.366;2022-11-20T09:18:02;45.20;;;22.10;;
43606;SDS011;29197;44.788;10.366;2022-11-20T09:20:55;46.90;;;21.43;;
43606;SDS011;29197;44.788;10.366;2022-11-20T09:23:45;49.83;;;21.60;;
43606;SDS011;29197;44.788;10.366;2022-11-20T09:26:34;40.73;;;22.23;;
43606;SDS011;29197;44.788;10.366;2022-11-20T09:29:24;40.77;;;19.70;;
43606;SDS011;29197;44.788;10.366;2022-11-20T09:32:13;39.20;;;19.77;;
43606;SDS011;29197;44.788;10.366;2022-11-20T09:35:02;41.17;;;19.47;;
43606;SDS011;29197;44.788;10.366;2022-11-20T09:37:52;40.90;;;20.10;;
43606;SDS011;29197;44.788;10.366;2022-11-20T09:40:44;43.93;;;20.53;;
43606;SDS011;29197;44.788;10.366;2022-11-20T09:43:40;40.80;;;20.77;;
43606;SDS011;29197;44.788;10.366;2022-11-20T09:46:37;34.03;;;17.23;;
43606;SDS011;29197;44.788;10.366;2022-11-20T09:49:31;36.22;;;19.00;;
43606;SDS011;29197;44.788;10.366;2022-11-20T09:52:25;34.10;;;18.60;;
43606;SDS011;29197;44.788;10.366;2022-11-20T09:55:18;35.70;;;18.17;;
43606;SDS011;29197;44.788;10.366;2022-11-20T09:58:14;37.30;;;19.05;;
43606;SDS011;29197;44.788;10.366;2022-11-20T10:01:08;32.17;;;18.25;;
43606;SDS011;29197;44.788;10.366;2022-11-20T10:04:02;31.88;;;17.42;;
43606;SDS011;29197;44.788;10.366;2022-11-20T10:06:53;37.53;;;17.67;;
43606;SDS011;29197;44.788;10.366;2022-11-20T10:10:03;36.15;;;19.10;;
43606;SDS011;29197;44.788;10.366;2022-11-20T10:12:56;39.95;;;20.35;;
43606;SDS011;29197;44.788;10.366;2022-11-20T10:15:53;41.75;;;20.75;;
43606;SDS011;29197;44.788;10.366;2022-11-20T10:18:49;43.05;;;21.55;;
43606;SDS011;29197;44.788;10.366;2022-11-20T10:21:52;38.88;;;21.02;;
43606;SDS011;29197;44.788;10.366;2022-11-20T10:24:52;42.22;;;20.95;;
43606;SDS011;29197;44.788;10.366;2022-11-20T10:27:51;45.40;;;21.83;;
43606;SDS011;29197;44.788;10.366;2022-11-20T10:30:55;42.50;;;22.30;;
43606;SDS011;29197;44.788;10.366;2022-11-20T10:33:48;46.40;;;23.55;;
43606;SDS011;29197;44.788;10.366;2022-11-20T10:36:59;44.20;;;22.52;;
43606;SDS011;29197;44.788;10.366;2022-11-20T10:39:56;44.03;;;22.15;;
43606;SDS011;29197;44.788;10.366;2022-11-20T10:42:51;42.15;;;21.30;;
43606;SDS011;29197;44.788;10.366;2022-11-20T10:45:45;41.67;;;22.20;;
43606;SDS011;29197;44.788;10.366;2022-11-20T10:48:39;42.67;;;22.38;;
43606;SDS011;29197;44.788;10.366;2022-11-20T10:51:34;46.53;;;22.40;;
43606;SDS011;29197;44.788;10.366;2022-11-20T10:54:29;47.80;;;23.75;;
43606;SDS011;29197;44.788;10.366;2022-11-20T10:57:27;49.80;;;24.48;;
43606;SDS011;29197;44.788;10.366;2022-11-20T11:00:20;45.80;;;23.92;;
43606;SDS011;29197;44.788;10.366;2022-11-20T11:03:14;45.33;;;23.77;;
43606;SDS011;29197;44.788;10.366;2022-11-20T11:06:12;45.92;;;23.52;;
43606;SDS011;29197;44.788;10.366;2022-11-20T11:09:10;43.13;;;23.08;;
43606;SDS011;29197;44.788;10.366;2022-11-20T11:12:07;46.00;;;23.10;;
43606;SDS011;29197;44.788;10.366;2022-11-20T11:14:57;43.88;;;23.25;;
43606;SDS011;29197;44.788;10.366;2022-11-20T11:17:47;42.45;;;23.77;;
43606;SDS011;29197;44.788;10.366;2022-11-20T11:20:36;39.75;;;21.77;;
43606;SDS011;29197;44.788;10.366;2022-11-20T11:23:31;44.08;;;22.92;;
43606;SDS011;29197;44.788;10.366;2022-11-20T11:26:22;45.47;;;23.75;;
43606;SDS011;29197;44.788;10.366;2022-11-20T11:29:17;42.03;;;22.05;;
43606;SDS011;29197;44.788;10.366;2022-11-20T11:32:07;44.60;;;23.52;;
43606;SDS011;29197;44.788;10.366;2022-11-20T11:35:00;44.03;;;23.52;;
43606;SDS011;29197;44.788;10.366;2022-11-20T11:37:50;47.63;;;23.92;;
43606;SDS011;29197;44.788;10.366;2022-11-20T11:40:43;47.03;;;24.73;;
43606;SDS011;29197;44.788;10.366;2022-11-20T11:43:32;41.20;;;23.00;;
43606;SDS011;29197;44.788;10.366;2022-11-20T11:46:55;41.45;;;22.13;;
43606;SDS011;29197;44.788;10.366;2022-11-20T11:49:45;41.88;;;23.30;;
43606;SDS011;29197;44.788;10.366;2022-11-20T11:52:42;42.38;;;23.77;;
43606;SDS011;29197;44.788;10.366;2022-11-20T11:55:34;40.50;;;21.75;;
43606;SDS011;29197;44.788;10.366;2022-11-20T11:58:34;44.50;;;23.02;;
43606;SDS011;29197;44.788;10.366;2022-11-20T12:01:28;38.33;;;22.00;;
43606;SDS011;29197;44.788;10.366;2022-11-20T12:04:23;43.78;;;23.40;;
43606;SDS011;29197;44.788;10.366;2022-11-20T12:07:19;43.00;;;24.10;;
43606;SDS011;29197;44.788;10.366;2022-11-20T12:10:34;42.15;;;23.38;;
43606;SDS011;29197;44.788;10.366;2022-11-20T12:13:32;43.40;;;23.05;;
43606;SDS011;29197;44.788;10.366;2022-11-20T12:16:21;42.70;;;22.52;;
43606;SDS011;29197;44.788;10.366;2022-11-20T12:19:11;45.53;;;24.05;;
43606;SDS011;29197;44.788;10.366;2022-11-20T12:22:05;41.53;;;24.10;;
43606;SDS011;29197;44.788;10.366;2022-11-20T12:24:58;47.22;;;23.92;;
43606;SDS011;29197;44.788;10.366;2022-11-20T12:28:03;37.78;;;21.70;;
43606;SDS011;29197;44.788;10.366;2022-11-20T12:31:09;46.28;;;24.05;;
43606;SDS011;29197;44.788;10.366;2022-11-20T12:34:05;48.25;;;25.42;;
43606;SDS011;29197;44.788;10.366;2022-11-20T12:37:00;55.50;;;28.35;;
43606;SDS011;29197;44.788;10.366;2022-11-20T12:39:53;43.42;;;24.60;;
43606;SDS011;29197;44.788;10.366;2022-11-20T12:42:46;44.10;;;24.15;;
43606;SDS011;29197;44.788;10.366;2022-11-20T12:46:10;41.47;;;23.40;;
43606;SDS011;29197;44.788;10.366;2022-11-20T12:49:03;41.78;;;24.48;;
43606;SDS011;29197;44.788;10.366;2022-11-20T12:51:59;46.60;;;25.35;;
43606;SDS011;29197;44.788;10.366;2022-11-20T12:55:00;51.55;;;26.40;;
43606;SDS011;29197;44.788;10.366;2022-11-20T12:57:53;52.08;;;25.70;;
43606;SDS011;29197;44.788;10.366;2022-11-20T13:00:47;42.17;;;23.60;;
43606;SDS011;29197;44.788;10.366;2022-11-20T13:03:42;43.92;;;24.92;;
43606;SDS011;29197;44.788;10.366;2022-11-20T13:06:33;38.63;;;21.55;;
43606;SDS011;29197;44.788;10.366;2022-11-20T13:09:22;41.65;;;23.25;;
43606;SDS011;29197;44.788;10.366;2022-11-20T13:12:16;42.30;;;22.27;;
43606;SDS011;29197;44.788;10.366;2022-11-20T13:15:07;43.67;;;24.05;;
43606;SDS011;29197;44.788;10.366;2022-11-20T13:18:00;46.67;;;24.65;;
43606;SDS011;29197;44.788;10.366;2022-11-20T13:20:50;40.92;;;22.10;;
43606;SDS011;29197;44.788;10.366;2022-11-20T13:23:39;43.47;;;22.80;;
43606;SDS011;29197;44.788;10.366;2022-11-20T13:26:28;37.85;;;21.25;;
43606;SDS011;29197;44.788;10.366;2022-11-20T13:29:18;37.97;;;21.48;;
43606;SDS011;29197;44.788;10.366;2022-11-20T13:32:13;36.67;;;22.00;;
43606;SDS011;29197;44.788;10.366;2022-11-20T13:35:03;39.33;;;21.88;;
43606;SDS011;29197;44.788;10.366;2022-11-20T13:37:59;38.40;;;22.08;;
43606;SDS011;29197;44.788;10.366;2022-11-20T13:40:51;41.03;;;22.55;;
43606;SDS011;29197;44.788;10.366;2022-11-20T13:43:41;38.60;;;22.00;;
43606;SDS011;29197;44.788;10.366;2022-11-20T13:46:40;38.17;;;23.08;;
43606;SDS011;29197;44.788;10.366;2022-11-20T13:49:32;37.00;;;21.52;;
43606;SDS011;29197;44.788;10.366;2022-11-20T13:52:33;42.95;;;23.70;;
43606;SDS011;29197;44.788;10.366;2022-11-20T13:55:25;43.45;;;25.17;;
43606;SDS011;29197;44.788;10.366;2022-11-20T13:58:21;44.08;;;24.40;;
43606;SDS011;29197;44.788;10.366;2022-11-20T14:01:16;47.53;;;24.90;;
43606;SDS011;29197;44.788;10.366;2022-11-20T14:04:08;41.58;;;24.58;;
43606;SDS011;29197;44.788;10.366;2022-11-20T14:06:57;40.83;;;23.88;;
43606;SDS011;29197;44.788;10.366;2022-11-20T14:09:51;53.88;;;26.83;;
43606;SDS011;29197;44.788;10.366;2022-11-20T14:12:40;50.63;;;26.75;;
43606;SDS011;29197;44.788;10.366;2022-11-20T14:15:30;44.72;;;22.83;;
43606;SDS011;29197;44.788;10.366;2022-11-20T14:18:20;42.53;;;22.25;;
43606;SDS011;29197;44.788;10.366;2022-11-20T14:21:11;49.63;;;24.17;;
43606;SDS011;29197;44.788;10.366;2022-11-20T14:24:10;48.88;;;26.63;;
43606;SDS011;29197;44.788;10.366;2022-11-20T14:27:01;48.85;;;26.15;;
43606;SDS011;29197;44.788;10.366;2022-11-20T14:29:50;49.20;;;25.70;;
43606;SDS011;29197;44.788;10.366;2022-11-20T14:32:41;46.13;;;24.77;;
43606;SDS011;29197;44.788;10.366;2022-11-20T14:35:34;47.63;;;24.23;;
43606;SDS011;29197;44.788;10.366;2022-11-20T14:38:26;49.33;;;26.25;;
43606;SDS011;29197;44.788;10.366;2022-11-20T14:41:16;51.42;;;25.75;;
43606;SDS011;29197;44.788;10.366;2022-11-20T14:44:06;47.33;;;25.98;;
43606;SDS011;29197;44.788;10.366;2022-11-20T14:46:57;46.83;;;26.58;;
43606;SDS011;29197;44.788;10.366;2022-11-20T14:49:47;48.03;;;25.80;;
43606;SDS011;29197;44.788;10.366;2022-11-20T14:52:37;46.83;;;24.25;;
43606;SDS011;29197;44.788;10.366;2022-11-20T14:55:29;46.25;;;24.35;;
43606;SDS011;29197;44.788;10.366;2022-11-20T14:58:20;47.85;;;26.10;;
43606;SDS011;29197;44.788;10.366;2022-11-20T15:01:12;50.83;;;25.67;;
43606;SDS011;29197;44.788;10.366;2022-11-20T15:04:05;46.90;;;25.02;;
43606;SDS011;29197;44.788;10.366;2022-11-20T15:06:55;44.53;;;24.38;;
43606;SDS011;29197;44.788;10.366;2022-11-20T15:09:45;50.53;;;25.50;;
43606;SDS011;29197;44.788;10.366;2022-11-20T15:12:37;50.70;;;27.30;;
43606;SDS011;29197;44.788;10.366;2022-11-20T15:15:28;55.90;;;27.13;;
43606;SDS011;29197;44.788;10.366;2022-11-20T15:18:21;52.30;;;27.25;;
43606;SDS011;29197;44.788;10.366;2022-11-20T15:21:12;50.83;;;26.15;;
43606;SDS011;29197;44.788;10.366;2022-11-20T15:24:02;47.05;;;26.13;;
43606;SDS011;29197;44.788;10.366;2022-11-20T15:26:51;53.88;;;27.45;;
43606;SDS011;29197;44.788;10.366;2022-11-20T15:29:43;55.53;;;27.67;;
43606;SDS011;29197;44.788;10.366;2022-11-20T15:32:32;52.13;;;26.90;;
43606;SDS011;29197;44.788;10.366;2022-11-20T15:35:21;49.90;;;26.67;;
43606;SDS011;29197;44.788;10.366;2022-11-20T15:38:11;51.13;;;25.67;;
43606;SDS011;29197;44.788;10.366;2022-11-20T15:41:00;52.20;;;26.23;;
43606;SDS011;29197;44.788;10.366;2022-11-20T15:43:49;52.83;;;26.15;;
43606;SDS011;29197;44.788;10.366;2022-11-20T15:46:40;54.17;;;27.33;;
43606;SDS011;29197;44.788;10.366;2022-11-20T15:49:31;47.92;;;25.80;;
43606;SDS011;29197;44.788;10.366;2022-11-20T15:52:21;60.85;;;27.45;;
43606;SDS011;29197;44.788;10.366;2022-11-20T15:55:10;50.78;;;26.60;;
43606;SDS011;29197;44.788;10.366;2022-11-20T15:58:00;57.45;;;28.83;;
43606;SDS011;29197;44.788;10.366;2022-11-20T16:00:49;53.75;;;27.83;;
43606;SDS011;29197;44.788;10.366;2022-11-20T16:03:40;51.53;;;26.83;;
43606;SDS011;29197;44.788;10.366;2022-11-20T16:06:29;54.38;;;27.40;;
43606;SDS011;29197;44.788;10.366;2022-11-20T16:09:18;56.75;;;28.83;;
43606;SDS011;29197;44.788;10.366;2022-11-20T16:12:08;54.80;;;28.30;;
43606;SDS011;29197;44.788;10.366;2022-11-20T16:15:19;58.58;;;28.92;;
43606;SDS011;29197;44.788;10.366;2022-11-20T16:18:25;57.40;;;28.30;;
43606;SDS011;29197;44.788;10.366;2022-11-20T16:21:16;54.53;;;27.73;;
43606;SDS011;29197;44.788;10.366;2022-11-20T16:24:05;52.70;;;27.45;;
43606;SDS011;29197;44.788;10.366;2022-11-20T16:26:55;53.13;;;28.08;;
43606;SDS011;29197;44.788;10.366;2022-11-20T16:29:45;58.70;;;29.58;;
43606;SDS011;29197;44.788;10.366;2022-11-20T16:32:35;51.95;;;27.40;;
43606;SDS011;29197;44.788;10.366;2022-11-20T16:35:26;53.70;;;27.45;;
43606;SDS011;29197;44.788;10.366;2022-11-20T16:38:18;57.50;;;29.20;;
43606;SDS011;29197;44.788;10.366;2022-11-20T16:41:07;51.13;;;27.60;;
43606;SDS011;29197;44.788;10.366;2022-11-20T16:44:00;59.40;;;28.33;;
43606;SDS011;29197;44.788;10.366;2022-11-20T16:46:50;53.65;;;29.23;;
43606;SDS011;29197;44.788;10.366;2022-11-20T16:49:39;53.33;;;29.30;;
43606;SDS011;29197;44.788;10.366;2022-11-20T16:52:29;57.40;;;28.92;;
43606;SDS011;29197;44.788;10.366;2022-11-20T16:55:20;57.43;;;28.70;;
43606;SDS011;29197;44.788;10.366;2022-11-20T16:58:09;56.55;;;29.40;;
43606;SDS011;29197;44.788;10.366;2022-11-20T17:01:03;58.63;;;29.33;;
43606;SDS011;29197;44.788;10.366;2022-11-20T17:03:53;58.03;;;29.43;;
43606;SDS011;29197;44.788;10.366;2022-11-20T17:06:43;55.22;;;26.85;;
43606;SDS011;29197;44.788;10.366;2022-11-20T17:09:33;64.63;;;30.92;;
43606;SDS011;29197;44.788;10.366;2022-11-20T17:12:24;51.80;;;28.23;;
43606;SDS011;29197;44.788;10.366;2022-11-20T17:15:13;60.70;;;29.20;;
43606;SDS011;29197;44.788;10.366;2022-11-20T17:18:03;56.43;;;28.47;;
43606;SDS011;29197;44.788;10.366;2022-11-20T17:20:53;58.13;;;30.05;;
43606;SDS011;29197;44.788;10.366;2022-11-20T17:23:43;52.78;;;28.45;;
43606;SDS011;29197;44.788;10.366;2022-11-20T17:26:33;56.72;;;29.60;;
43606;SDS011;29197;44.788;10.366;2022-11-20T17:29:24;58.88;;;29.73;;
43606;SDS011;29197;44.788;10.366;2022-11-20T17:32:13;67.35;;;33.10;;
43606;SDS011;29197;44.788;10.366;2022-11-20T17:35:03;55.53;;;29.60;;
43606;SDS011;29197;44.788;10.366;2022-11-20T17:37:52;67.37;;;31.50;;
43606;SDS011;29197;44.788;10.366;2022-11-20T17:40:42;57.03;;;28.60;;
43606;SDS011;29197;44.788;10.366;2022-11-20T17:43:32;60.97;;;31.23;;
43606;SDS011;29197;44.788;10.366;2022-11-20T17:46:25;56.10;;;29.43;;
43606;SDS011;29197;44.788;10.366;2022-11-20T17:49:14;57.50;;;28.20;;
43606;SDS011;29197;44.788;10.366;2022-11-20T17:52:09;62.70;;;31.87;;
43606;SDS011;29197;44.788;10.366;2022-11-20T17:54:58;62.97;;;30.27;;
43606;SDS011;29197;44.788;10.366;2022-11-20T17:57:48;54.67;;;29.47;;
43606;SDS011;29197;44.788;10.366;2022-11-20T18:00:39;61.57;;;30.33;;
43606;SDS011;29197;44.788;10.366;2022-11-20T18:03:30;64.70;;;30.93;;
43606;SDS011;29197;44.788;10.366;2022-11-20T18:06:20;54.20;;;29.13;;
43606;SDS011;29197;44.788;10.366;2022-11-20T18:09:09;64.90;;;32.37;;
43606;SDS011;29197;44.788;10.366;2022-11-20T18:11:59;63.53;;;31.63;;
43606;SDS011;29197;44.788;10.366;2022-11-20T18:14:49;66.20;;;33.07;;
43606;SDS011;29197;44.788;10.366;2022-11-20T18:17:38;67.53;;;32.90;;
43606;SDS011;29197;44.788;10.366;2022-11-20T18:20:28;62.37;;;32.57;;
43606;SDS011;29197;44.788;10.366;2022-11-20T18:23:25;67.40;;;34.07;;
43606;SDS011;29197;44.788;10.366;2022-11-20T18:26:14;59.93;;;32.13;;
43606;SDS011;29197;44.788;10.366;2022-11-20T18:29:03;62.93;;;32.23;;
43606;SDS011;29197;44.788;10.366;2022-11-20T18:31:53;67.53;;;33.80;;
43606;SDS011;29197;44.788;10.366;2022-11-20T18:34:42;69.40;;;34.63;;
43606;SDS011;29197;44.788;10.366;2022-11-20T18:37:33;62.30;;;32.40;;
43606;SDS011;29197;44.788;10.366;2022-11-20T18:40:23;61.30;;;32.10;;
43606;SDS011;29197;44.788;10.366;2022-11-20T18:43:12;71.33;;;33.77;;
43606;SDS011;29197;44.788;10.366;2022-11-20T18:46:33;66.13;;;32.73;;